Time;durP1;ratioP1;P1;durP2;ratioP2;P2;SDS_P1;SDS_P2;PMS_P1;PMS_P2;Temp;Humidity;BMP_temperature;BMP_pressure;BME280_temperature;BME280_humidity;BME280_pressure;Samples;Min_cycle;Max_cycle;Signal;HPM_P1;HPM_P2
2021/01/17 00:01:29;;;;;;;25.33;14.20;;;-0.10;94.10;;;;;;5127345;27;27358;-46
2021/01/17 00:04:13;;;;;;;32.90;14.82;;;-0.10;94.10;;;;;;5127262;27;27385;-49
2021/01/17 00:06:58;;;;;;;25.55;14.32;;;-0.10;94.10;;;;;;5126475;27;27603;-48
2021/01/17 00:09:43;;;;;;;26.77;14.35;;;-0.10;94.10;;;;;;5126865;27;27382;-48
2021/01/17 00:12:28;;;;;;;25.38;13.88;;;0.00;94.10;;;;;;5126584;27;27507;-49
2021/01/17 00:15:12;;;;;;;25.55;14.20;;;-0.10;94.10;;;;;;5126797;27;27417;-47
2021/01/17 00:17:57;;;;;;;25.70;14.48;;;0.00;94.10;;;;;;5127105;27;27385;-48
2021/01/17 00:20:42;;;;;;;24.05;14.23;;;0.00;94.10;;;;;;5126948;27;27374;-48
2021/01/17 00:23:26;;;;;;;27.35;14.40;;;0.00;94.20;;;;;;5126137;27;27498;-50
2021/01/17 00:26:11;;;;;;;30.08;15.02;;;0.00;94.10;;;;;;5126533;27;27424;-47
2021/01/17 00:28:55;;;;;;;26.98;13.30;;;0.00;94.00;;;;;;5126922;27;27467;-48
2021/01/17 00:31:40;;;;;;;27.05;13.98;;;0.00;94.00;;;;;;5126854;27;27440;-47
2021/01/17 00:34:24;;;;;;;24.30;13.00;;;0.00;94.00;;;;;;5126773;27;27405;-49
2021/01/17 00:37:13;;;;;;;26.92;13.85;;;0.00;94.00;;;;;;5126806;27;27466;-47
2021/01/17 00:39:58;;;;;;;24.25;13.45;;;0.00;94.00;;;;;;5125747;27;27389;-47
2021/01/17 00:42:49;;;;;;;27.58;14.80;;;0.00;94.10;;;;;;5125948;27;27351;-47
2021/01/17 00:45:34;;;;;;;28.30;14.85;;;0.00;94.10;;;;;;5126220;27;27410;-47
2021/01/17 00:48:19;;;;;;;29.63;15.00;;;0.00;94.00;;;;;;5123096;27;27445;-47
2021/01/17 00:51:04;;;;;;;24.60;14.57;;;0.00;94.00;;;;;;5122917;27;27420;-47
2021/01/17 00:53:49;;;;;;;28.00;15.05;;;0.00;94.00;;;;;;5122460;27;27455;-47
2021/01/17 00:56:34;;;;;;;28.80;15.13;;;0.00;94.00;;;;;;5125349;27;27468;-44
2021/01/17 00:59:19;;;;;;;27.08;14.48;;;0.00;94.00;;;;;;5122076;27;27441;-47
2021/01/17 01:02:05;;;;;;;26.60;13.77;;;0.00;93.90;;;;;;5126336;27;27406;-47
2021/01/17 01:04:50;;;;;;;26.92;14.52;;;0.10;94.00;;;;;;5126035;27;27418;-47
2021/01/17 01:07:34;;;;;;;25.10;14.25;;;0.10;94.00;;;;;;5125337;27;27418;-47
2021/01/17 01:10:19;;;;;;;28.23;15.05;;;0.10;93.90;;;;;;5126167;27;27489;-48
2021/01/17 01:13:03;;;;;;;26.63;13.82;;;0.00;93.90;;;;;;5122840;27;27463;-47
2021/01/17 01:15:48;;;;;;;28.80;15.88;;;0.00;93.90;;;;;;5126133;27;27956;-46
2021/01/17 01:18:32;;;;;;;25.85;13.95;;;0.10;94.00;;;;;;5125980;27;27394;-48
2021/01/17 01:21:24;;;;;;;27.25;13.77;;;0.10;93.90;;;;;;5125351;27;27455;-48
2021/01/17 01:24:09;;;;;;;26.60;14.82;;;0.10;93.80;;;;;;5125970;27;26940;-47
2021/01/17 01:26:54;;;;;;;26.63;14.43;;;0.10;93.90;;;;;;5125296;27;28045;-46
2021/01/17 01:29:39;;;;;;;26.55;14.85;;;0.10;93.90;;;;;;5125562;27;27417;-47
2021/01/17 01:32:23;;;;;;;26.73;15.18;;;0.00;93.90;;;;;;5125626;27;27348;-48
2021/01/17 01:35:08;;;;;;;30.17;15.05;;;0.10;93.90;;;;;;5125642;27;27357;-47
2021/01/17 01:37:53;;;;;;;29.60;15.82;;;0.10;94.00;;;;;;5122372;27;27312;-48
2021/01/17 01:40:38;;;;;;;28.50;14.77;;;0.10;93.90;;;;;;5125378;27;27394;-47
2021/01/17 01:43:22;;;;;;;27.23;15.15;;;0.10;93.90;;;;;;5125767;27;27327;-47
2021/01/17 01:46:07;;;;;;;28.83;15.88;;;0.10;93.90;;;;;;5125244;27;27385;-48
2021/01/17 01:48:53;;;;;;;26.33;14.63;;;0.10;93.90;;;;;;5125550;27;27395;-47
2021/01/17 01:51:41;;;;;;;25.42;14.60;;;0.10;93.90;;;;;;5125572;27;27406;-47
2021/01/17 01:54:26;;;;;;;25.60;13.98;;;0.10;94.20;;;;;;5125538;27;27465;-47
2021/01/17 01:57:10;;;;;;;32.47;15.90;;;0.10;93.90;;;;;;5125512;27;27344;-49
2021/01/17 01:59:56;;;;;;;25.50;15.05;;;0.10;94.20;;;;;;5124697;27;27405;-48
2021/01/17 02:02:44;;;;;;;29.95;14.90;;;0.10;93.80;;;;;;5123858;27;27627;-47
2021/01/17 02:05:29;;;;;;;31.40;15.95;;;0.10;93.80;;;;;;5124773;27;27520;-47
2021/01/17 02:08:22;;;;;;;27.33;14.63;;;0.10;93.80;;;;;;5125054;27;27541;-47
2021/01/17 02:11:13;;;;;;;24.85;14.52;;;0.10;93.70;;;;;;5125219;27;27864;-48
2021/01/17 02:14:24;;;;;;;27.73;14.38;;;0.10;93.80;;;;;;5125288;27;27355;-47
2021/01/17 02:17:11;;;;;;;29.27;14.45;;;0.10;93.90;;;;;;5123658;27;27482;-47
2021/01/17 02:20:08;;;;;;;30.30;15.88;;;0.10;93.80;;;;;;5124417;27;27394;-47
2021/01/17 02:23:02;;;;;;;28.15;14.70;;;0.10;93.90;;;;;;5106243;27;27323;-47
2021/01/17 02:25:46;;;;;;;29.38;15.35;;;0.10;93.80;;;;;;5121686;27;27310;-47
2021/01/17 02:28:30;;;;;;;29.10;14.73;;;0.10;93.80;;;;;;5124793;27;27557;-49
2021/01/17 02:31:15;;;;;;;28.65;15.75;;;0.10;93.80;;;;;;5124024;27;27487;-48
2021/01/17 02:34:00;;;;;;;27.17;14.73;;;0.10;93.80;;;;;;5109788;27;27481;-47
2021/01/17 02:37:04;;;;;;;28.75;15.32;;;0.10;93.80;;;;;;5123899;27;27430;-47
2021/01/17 02:40:07;;;;;;;26.80;13.85;;;0.10;93.80;;;;;;5124690;27;27459;-47
2021/01/17 02:42:52;;;;;;;30.48;15.25;;;0.10;93.70;;;;;;5123893;27;27430;-47
2021/01/17 02:45:36;;;;;;;32.20;15.10;;;0.10;93.80;;;;;;5124751;27;27426;-46
2021/01/17 02:48:21;;;;;;;32.92;15.57;;;0.10;93.80;;;;;;5125408;27;27656;-48
2021/01/17 02:51:06;;;;;;;28.27;15.02;;;0.10;93.90;;;;;;5128390;27;27618;-47
2021/01/17 02:54:05;;;;;;;29.40;15.65;;;0.10;93.80;;;;;;5125132;27;27316;-46
2021/01/17 02:57:07;;;;;;;32.00;15.30;;;0.10;93.80;;;;;;5127477;27;27412;-48
2021/01/17 02:59:57;;;;;;;27.20;15.48;;;0.10;93.90;;;;;;5128018;27;27472;-48
2021/01/17 03:02:43;;;;;;;30.67;15.93;;;0.10;93.90;;;;;;5127307;27;27339;-46
2021/01/17 03:05:28;;;;;;;25.88;13.90;;;0.20;93.90;;;;;;5127264;27;27383;-47
2021/01/17 03:08:12;;;;;;;34.67;15.85;;;0.10;93.90;;;;;;5127073;27;27399;-46
2021/01/17 03:10:56;;;;;;;30.17;15.57;;;0.20;93.90;;;;;;5109213;27;27426;-47
2021/01/17 03:13:41;;;;;;;29.10;14.65;;;0.20;93.80;;;;;;5128130;27;27489;-47
2021/01/17 03:16:25;;;;;;;28.95;14.35;;;0.20;93.80;;;;;;5128000;27;27580;-48
2021/01/17 03:19:10;;;;;;;29.88;15.27;;;0.10;93.80;;;;;;5127635;27;27476;-48
2021/01/17 03:21:54;;;;;;;29.52;16.30;;;0.10;93.80;;;;;;5127632;27;27468;-47
2021/01/17 03:24:39;;;;;;;29.63;16.02;;;0.20;93.80;;;;;;5127234;27;27430;-47
2021/01/17 03:27:23;;;;;;;27.77;14.32;;;0.10;93.70;;;;;;5127273;27;27416;-47
2021/01/17 03:30:08;;;;;;;31.02;15.90;;;0.20;93.80;;;;;;5127829;27;27467;-47
2021/01/17 03:32:53;;;;;;;28.73;14.85;;;0.20;93.80;;;;;;5127727;27;27459;-47
2021/01/17 03:35:37;;;;;;;30.17;15.10;;;0.20;93.80;;;;;;5127474;27;27489;-47
2021/01/17 03:38:22;;;;;;;28.98;16.67;;;0.20;93.80;;;;;;5127492;27;27418;-47
2021/01/17 03:41:11;;;;;;;27.35;15.18;;;0.20;93.70;;;;;;5127368;27;27469;-47
2021/01/17 03:43:55;;;;;;;31.50;15.57;;;0.20;93.80;;;;;;5127613;27;27419;-46
2021/01/17 03:46:40;;;;;;;33.85;15.30;;;0.20;93.80;;;;;;5127086;27;27465;-46
2021/01/17 03:49:25;;;;;;;27.83;15.00;;;0.20;93.80;;;;;;5127494;27;27318;-47
2021/01/17 03:52:09;;;;;;;27.38;15.70;;;0.20;93.70;;;;;;5127385;27;27899;-46
2021/01/17 03:54:54;;;;;;;26.73;15.35;;;0.20;94.00;;;;;;5108946;27;27426;-47
2021/01/17 03:57:39;;;;;;;31.90;15.93;;;0.20;93.70;;;;;;5127130;27;27473;-50
2021/01/17 04:00:23;;;;;;;27.80;15.23;;;0.20;93.70;;;;;;5126944;27;27437;-47
2021/01/17 04:03:08;;;;;;;28.40;15.18;;;0.20;93.70;;;;;;5126943;27;27415;-47
2021/01/17 04:05:52;;;;;;;27.70;15.82;;;0.20;93.60;;;;;;5126372;27;27472;-48
2021/01/17 04:08:37;;;;;;;34.90;14.77;;;0.20;93.60;;;;;;5126980;27;27453;-49
2021/01/17 04:11:21;;;;;;;26.20;13.50;;;0.20;93.70;;;;;;5126972;27;27475;-49
2021/01/17 04:14:06;;;;;;;27.45;15.23;;;0.20;93.70;;;;;;5127127;27;27374;-46
2021/01/17 04:16:51;;;;;;;26.58;14.02;;;0.20;93.70;;;;;;5126468;27;27401;-47
2021/01/17 04:19:35;;;;;;;29.00;14.45;;;0.20;93.70;;;;;;5126779;27;27389;-47
2021/01/17 04:22:19;;;;;;;25.25;14.32;;;0.20;93.70;;;;;;5126729;27;27450;-47
2021/01/17 04:25:05;;;;;;;30.77;15.95;;;0.20;93.70;;;;;;5126893;27;27976;-47
2021/01/17 04:27:49;;;;;;;28.90;14.05;;;0.20;93.70;;;;;;5126914;27;27425;-47
2021/01/17 04:30:34;;;;;;;27.65;14.82;;;0.20;93.70;;;;;;5123606;27;27320;-46
2021/01/17 04:33:19;;;;;;;29.27;14.82;;;0.20;93.70;;;;;;5126556;27;27342;-48
2021/01/17 04:36:05;;;;;;;27.20;15.23;;;0.20;93.70;;;;;;5126440;27;27960;-47
2021/01/17 04:38:50;;;;;;;25.50;15.23;;;0.20;93.70;;;;;;5126764;27;27381;-48
2021/01/17 04:41:35;;;;;;;26.70;14.35;;;0.30;93.80;;;;;;5126518;27;27386;-47
2021/01/17 04:44:20;;;;;;;28.10;14.57;;;0.20;93.70;;;;;;5126637;27;26896;-48
2021/01/17 04:47:05;;;;;;;29.85;15.25;;;0.20;93.70;;;;;;5122732;27;27369;-48
2021/01/17 04:49:52;;;;;;;30.90;16.05;;;0.20;93.70;;;;;;5126533;27;27331;-49
2021/01/17 04:52:41;;;;;;;27.50;15.20;;;0.20;93.70;;;;;;5126284;27;27460;-45
2021/01/17 04:55:27;;;;;;;27.10;15.13;;;0.20;93.70;;;;;;5126467;27;27377;-46
2021/01/17 04:58:19;;;;;;;26.35;14.13;;;0.20;93.60;;;;;;5126102;27;27338;-47
2021/01/17 05:01:03;;;;;;;25.80;14.40;;;0.30;93.70;;;;;;5126306;27;27404;-47
2021/01/17 05:04:15;;;;;;;30.70;16.33;;;0.20;93.60;;;;;;5125671;27;27467;-47
2021/01/17 05:07:00;;;;;;;28.85;15.50;;;0.20;93.60;;;;;;5125427;27;27639;-46
2021/01/17 05:09:48;;;;;;;27.90;15.32;;;0.20;93.60;;;;;;5110940;27;27363;-47
2021/01/17 05:12:50;;;;;;;27.98;15.05;;;0.30;93.70;;;;;;5125115;27;27533;-44
2021/01/17 05:15:37;;;;;;;29.13;14.98;;;0.20;93.70;;;;;;5125929;27;27396;-47
2021/01/17 05:18:22;;;;;;;28.77;14.85;;;0.20;93.60;;;;;;5126050;27;27471;-47
2021/01/17 05:21:07;;;;;;;27.08;14.52;;;0.20;93.60;;;;;;5125740;27;27465;-46
2021/01/17 05:23:51;;;;;;;27.75;15.85;;;0.30;93.70;;;;;;5110477;27;27555;-46
2021/01/17 05:26:36;;;;;;;29.02;15.10;;;0.30;93.70;;;;;;5092603;27;27364;-47
2021/01/17 05:29:24;;;;;;;33.40;16.63;;;0.30;93.70;;;;;;5110431;27;27393;-46
2021/01/17 05:32:09;;;;;;;30.85;15.63;;;0.20;93.70;;;;;;5125826;27;27430;-47
2021/01/17 05:34:53;;;;;;;31.40;15.35;;;0.30;93.70;;;;;;5125502;27;27449;-49
2021/01/17 05:37:52;;;;;;;27.52;14.85;;;0.20;93.70;;;;;;5125614;27;27434;-48
2021/01/17 05:40:37;;;;;;;29.10;15.80;;;0.30;93.70;;;;;;5125243;27;27414;-46
2021/01/17 05:43:21;;;;;;;27.88;14.23;;;0.20;93.70;;;;;;5125403;27;27358;-47
2021/01/17 05:46:11;;;;;;;29.52;15.05;;;0.20;93.70;;;;;;5125503;27;27442;-47
2021/01/17 05:49:12;;;;;;;29.50;15.52;;;0.30;93.70;;;;;;5125376;27;27431;-47
2021/01/17 05:52:10;;;;;;;28.83;15.90;;;0.30;93.70;;;;;;5125370;27;27353;-47
2021/01/17 05:54:54;;;;;;;30.88;15.75;;;0.30;93.70;;;;;;5125239;27;27839;-47
2021/01/17 05:57:39;;;;;;;28.00;14.93;;;0.30;93.70;;;;;;5110004;27;27489;-47
2021/01/17 06:00:33;;;;;;;28.02;15.35;;;0.30;93.70;;;;;;5125532;27;27429;-47
2021/01/17 06:03:28;;;;;;;28.08;15.07;;;0.30;93.70;;;;;;5125257;27;27308;-47
2021/01/17 06:06:13;;;;;;;27.73;14.50;;;0.30;93.70;;;;;;5122501;27;27740;-46
2021/01/17 06:08:58;;;;;;;24.90;14.25;;;0.30;93.70;;;;;;5124369;27;27619;-47
2021/01/17 06:11:58;;;;;;;30.15;15.18;;;0.30;93.70;;;;;;5122081;27;27331;-46
2021/01/17 06:14:42;;;;;;;25.40;15.27;;;0.30;93.70;;;;;;5125102;27;27397;-47
2021/01/17 06:17:27;;;;;;;29.17;14.77;;;0.30;93.70;;;;;;5125240;27;27905;-48
2021/01/17 06:20:18;;;;;;;27.63;14.63;;;0.30;93.70;;;;;;5092089;27;27395;-47
2021/01/17 06:23:03;;;;;;;28.63;15.05;;;0.30;93.70;;;;;;5127490;27;27336;-47
2021/01/17 06:26:01;;;;;;;28.13;15.30;;;0.30;93.70;;;;;;5113313;27;27398;-47
2021/01/17 06:28:46;;;;;;;25.50;13.95;;;0.30;93.70;;;;;;5128513;27;27898;-47
2021/01/17 06:31:31;;;;;;;27.67;14.68;;;0.30;93.70;;;;;;5128497;27;27429;-47
2021/01/17 06:34:15;;;;;;;28.80;14.40;;;0.30;93.70;;;;;;5127935;27;27339;-47
2021/01/17 06:37:04;;;;;;;33.35;16.05;;;0.30;93.70;;;;;;5128476;27;27323;-46
2021/01/17 06:39:54;;;;;;;29.23;15.70;;;0.30;93.70;;;;;;5128302;27;27839;-46
2021/01/17 06:42:38;;;;;;;27.05;14.77;;;0.30;93.70;;;;;;5128561;27;27385;-46
2021/01/17 06:45:23;;;;;;;29.65;15.90;;;0.30;93.70;;;;;;5128311;27;27345;-47
2021/01/17 06:48:08;;;;;;;28.25;14.63;;;0.40;93.70;;;;;;5128226;27;27351;-45
2021/01/17 06:50:53;;;;;;;31.58;15.75;;;0.40;93.70;;;;;;5128111;27;27331;-48
2021/01/17 06:53:37;;;;;;;28.70;15.00;;;0.40;93.70;;;;;;5128178;27;27428;-47
2021/01/17 06:56:22;;;;;;;30.98;15.85;;;0.40;93.80;;;;;;5127396;27;27406;-47
2021/01/17 06:59:07;;;;;;;29.30;14.68;;;0.40;93.80;;;;;;5128052;27;27365;-47
2021/01/17 07:01:52;;;;;;;25.83;14.95;;;0.30;93.70;;;;;;5127888;27;28008;-47
2021/01/17 07:04:41;;;;;;;29.80;15.65;;;0.30;93.70;;;;;;5123924;27;27480;-47
2021/01/17 07:07:37;;;;;;;28.25;14.90;;;0.30;93.70;;;;;;5127954;27;27401;-48
2021/01/17 07:10:23;;;;;;;28.35;14.95;;;0.30;93.60;;;;;;5127920;27;27460;-47
2021/01/17 07:13:08;;;;;;;29.67;14.85;;;0.30;93.60;;;;;;5128120;27;27464;-46
2021/01/17 07:15:53;;;;;;;28.13;14.98;;;0.40;93.70;;;;;;5127745;27;27411;-46
2021/01/17 07:18:38;;;;;;;27.95;14.38;;;0.40;93.70;;;;;;5127020;27;27496;-46
2021/01/17 07:21:22;;;;;;;27.73;15.75;;;0.40;93.70;;;;;;5112456;27;27497;-47
2021/01/17 07:24:08;;;;;;;28.40;15.13;;;0.40;93.70;;;;;;5126861;27;28041;-47
2021/01/17 07:27:07;;;;;;;28.60;14.55;;;0.40;93.70;;;;;;5127326;27;27410;-47
2021/01/17 07:29:52;;;;;;;25.80;14.82;;;0.40;93.70;;;;;;5127559;27;27401;-48
2021/01/17 07:32:36;;;;;;;29.63;15.70;;;0.40;93.70;;;;;;5112664;27;27421;-47
2021/01/17 07:35:25;;;;;;;29.85;16.52;;;0.40;93.70;;;;;;5126734;27;27903;-47
2021/01/17 07:38:14;;;;;;;28.80;15.60;;;0.40;93.70;;;;;;5127669;27;27327;-49
2021/01/17 07:41:06;;;;;;;29.73;15.57;;;0.40;93.70;;;;;;5127719;27;27459;-47
2021/01/17 07:43:52;;;;;;;27.23;15.43;;;0.40;93.70;;;;;;5124369;27;27514;-46
2021/01/17 07:46:37;;;;;;;32.17;15.43;;;0.40;93.70;;;;;;5111948;27;27559;-46
2021/01/17 07:49:21;;;;;;;28.15;15.85;;;0.40;93.70;;;;;;5126859;27;27397;-48
2021/01/17 07:52:05;;;;;;;33.95;15.80;;;0.40;93.70;;;;;;5127272;27;27401;-47
2021/01/17 07:54:50;;;;;;;28.95;15.18;;;0.40;93.70;;;;;;5127481;27;27321;-47
2021/01/17 07:57:34;;;;;;;26.40;15.75;;;0.40;93.60;;;;;;5125914;27;27960;-48
2021/01/17 08:00:24;;;;;;;27.00;15.25;;;0.40;93.70;;;;;;5126357;27;27453;-50
2021/01/17 08:03:22;;;;;;;31.80;17.38;;;0.40;93.70;;;;;;5127123;27;27400;-49
2021/01/17 08:06:07;;;;;;;30.00;15.57;;;0.40;93.70;;;;;;5125786;27;27384;-48
2021/01/17 08:08:52;;;;;;;32.70;16.40;;;0.40;93.70;;;;;;5127201;27;27378;-48
2021/01/17 08:11:49;;;;;;;30.42;16.17;;;0.40;93.70;;;;;;5126882;27;27516;-48
2021/01/17 08:14:39;;;;;;;30.52;16.40;;;0.40;93.70;;;;;;5126880;27;27343;-50
2021/01/17 08:17:23;;;;;;;32.05;16.65;;;0.40;93.70;;;;;;5126803;27;27410;-48
2021/01/17 08:20:08;;;;;;;29.52;16.45;;;0.50;93.70;;;;;;5126175;27;27452;-47
2021/01/17 08:23:08;;;;;;;35.35;18.77;;;0.50;93.70;;;;;;5126579;27;27394;-46
2021/01/17 08:25:55;;;;;;;29.30;16.33;;;0.50;93.70;;;;;;5126473;27;27458;-46
2021/01/17 08:28:41;;;;;;;29.80;16.80;;;0.50;93.80;;;;;;5126913;27;27366;-46
2021/01/17 08:31:35;;;;;;;28.88;16.77;;;0.50;93.80;;;;;;5126498;27;27856;-47
2021/01/17 08:34:27;;;;;;;32.10;18.50;;;0.50;93.80;;;;;;5126474;27;27388;-49
2021/01/17 08:37:15;;;;;;;28.63;17.58;;;0.50;93.80;;;;;;5126418;27;27388;-47
2021/01/17 08:40:00;;;;;;;33.17;17.15;;;0.50;93.70;;;;;;5126419;27;27378;-47
2021/01/17 08:42:52;;;;;;;33.75;18.23;;;0.60;93.70;;;;;;5125886;27;27422;-48
2021/01/17 08:45:41;;;;;;;33.45;16.75;;;0.60;93.70;;;;;;5124948;27;27492;-47
2021/01/17 08:48:27;;;;;;;34.70;18.00;;;0.60;93.80;;;;;;5126326;27;27354;-47
2021/01/17 08:51:12;;;;;;;31.70;17.33;;;0.60;93.80;;;;;;5126041;27;27434;-48
2021/01/17 08:53:56;;;;;;;38.05;19.58;;;0.60;93.70;;;;;;5126570;27;27373;-47
2021/01/17 08:56:41;;;;;;;36.22;18.33;;;0.60;93.70;;;;;;5125443;27;27339;-47
2021/01/17 08:59:33;;;;;;;33.20;18.35;;;0.60;93.60;;;;;;5125451;27;27441;-48
2021/01/17 09:02:18;;;;;;;37.20;18.40;;;0.70;93.70;;;;;;5126105;27;27397;-48
2021/01/17 09:05:02;;;;;;;35.88;19.33;;;0.70;93.70;;;;;;5124802;27;27341;-45
2021/01/17 09:07:47;;;;;;;36.13;19.08;;;0.70;93.60;;;;;;5126021;27;27517;-46
2021/01/17 09:10:32;;;;;;;32.20;19.00;;;0.70;93.60;;;;;;5111114;27;27402;-47
2021/01/17 09:13:20;;;;;;;35.47;18.67;;;0.70;93.60;;;;;;5125954;27;27465;-49
2021/01/17 09:16:08;;;;;;;38.20;19.63;;;0.70;93.60;;;;;;5126130;27;27382;-48
2021/01/17 09:18:53;;;;;;;36.33;20.08;;;0.70;93.60;;;;;;5125344;27;27435;-48
2021/01/17 09:21:38;;;;;;;36.00;19.65;;;0.80;93.60;;;;;;5110640;27;27493;-47
2021/01/17 09:24:27;;;;;;;37.50;20.48;;;0.80;93.60;;;;;;5126030;27;27449;-48
2021/01/17 09:27:12;;;;;;;35.05;19.92;;;0.80;93.60;;;;;;5125384;27;27389;-47
2021/01/17 09:29:56;;;;;;;41.00;19.98;;;0.80;93.50;;;;;;5125886;27;27581;-48
2021/01/17 09:32:41;;;;;;;40.42;21.65;;;0.80;93.50;;;;;;5110769;27;27552;-47
2021/01/17 09:35:25;;;;;;;39.90;21.17;;;0.80;93.50;;;;;;5125814;27;27463;-48
2021/01/17 09:38:17;;;;;;;33.05;19.42;;;0.90;93.50;;;;;;5125123;27;27426;-49
2021/01/17 09:41:02;;;;;;;39.25;20.45;;;0.90;93.50;;;;;;5122451;27;27421;-48
2021/01/17 09:43:47;;;;;;;35.05;19.70;;;0.90;93.50;;;;;;5125461;27;27367;-47
2021/01/17 09:46:33;;;;;;;37.28;20.90;;;0.90;93.50;;;;;;5124877;27;27580;-48
2021/01/17 09:49:22;;;;;;;34.15;18.95;;;0.90;93.50;;;;;;5124951;27;27460;-48
2021/01/17 09:52:11;;;;;;;36.97;20.23;;;0.90;93.50;;;;;;5125344;27;27405;-48
2021/01/17 09:54:56;;;;;;;36.15;18.92;;;1.00;93.50;;;;;;5125386;27;27327;-49
2021/01/17 09:57:40;;;;;;;32.53;19.08;;;1.00;93.50;;;;;;5124808;27;27306;-48
2021/01/17 10:00:25;;;;;;;35.17;19.27;;;1.00;93.50;;;;;;5125497;27;27344;-46
2021/01/17 10:03:11;;;;;;;33.85;18.73;;;1.00;93.50;;;;;;5125188;27;27516;-48
2021/01/17 10:05:55;;;;;;;31.05;17.50;;;1.00;93.60;;;;;;5124764;27;27667;-49
2021/01/17 10:08:41;;;;;;;34.88;17.85;;;1.00;93.50;;;;;;5124488;27;27774;-49
2021/01/17 10:11:25;;;;;;;34.67;18.75;;;1.10;93.60;;;;;;5125051;27;27396;-52
2021/01/17 10:14:12;;;;;;;31.73;18.30;;;1.10;93.50;;;;;;5122135;27;27355;-52
2021/01/17 10:16:57;;;;;;;34.20;18.75;;;1.10;93.60;;;;;;5125027;27;27399;-48
2021/01/17 10:19:45;;;;;;;33.33;17.67;;;1.10;93.50;;;;;;5124973;27;27477;-49
2021/01/17 10:22:30;;;;;;;31.67;17.85;;;1.10;93.60;;;;;;5125208;27;27457;-48
2021/01/17 10:25:17;;;;;;;30.45;17.83;;;1.10;93.60;;;;;;5124398;27;27418;-51
2021/01/17 10:28:06;;;;;;;28.42;17.13;;;1.20;93.60;;;;;;5124858;27;27328;-49
2021/01/17 10:30:57;;;;;;;27.77;16.73;;;1.20;93.60;;;;;;5124887;27;27337;-49
2021/01/17 10:33:41;;;;;;;32.53;17.13;;;1.20;93.60;;;;;;5125027;27;27414;-50
2021/01/17 10:36:26;;;;;;;30.67;17.02;;;1.20;93.80;;;;;;5123953;27;27541;-44
2021/01/17 10:39:10;;;;;;;28.42;16.63;;;1.20;93.40;;;;;;5124835;27;27459;-47
2021/01/17 10:42:24;;;;;;;29.35;16.58;;;1.20;93.40;;;;;;5123485;27;27439;-47
2021/01/17 10:45:10;;;;;;;27.13;16.38;;;1.30;93.30;;;;;;5121650;27;27463;-48
2021/01/17 10:48:07;;;;;;;31.08;17.48;;;1.30;93.30;;;;;;5124294;27;27422;-51
2021/01/17 10:51:09;;;;;;;28.33;17.35;;;1.30;93.30;;;;;;5124860;27;27431;-48
2021/01/17 10:53:54;;;;;;;30.75;17.65;;;1.40;93.30;;;;;;5123948;27;27492;-47
2021/01/17 10:56:38;;;;;;;27.77;16.80;;;1.40;93.20;;;;;;5124002;27;27488;-46
2021/01/17 10:59:25;;;;;;;28.80;16.63;;;1.40;93.20;;;;;;5124550;27;27457;-48
2021/01/17 11:02:20;;;;;;;29.83;17.08;;;1.40;93.20;;;;;;5123953;27;27476;-50
2021/01/17 11:05:06;;;;;;;25.80;15.90;;;1.40;93.10;;;;;;5123705;27;27449;-44
2021/01/17 11:07:51;;;;;;;32.92;17.83;;;1.50;93.10;;;;;;5120670;27;27856;-50
2021/01/17 11:10:36;;;;;;;30.95;16.95;;;1.50;93.10;;;;;;5125220;27;27450;-49
2021/01/17 11:13:20;;;;;;;28.00;15.95;;;1.50;93.20;;;;;;5127907;27;27410;-48
2021/01/17 11:16:05;;;;;;;26.92;16.58;;;1.50;93.10;;;;;;5127814;27;27396;-50
2021/01/17 11:18:49;;;;;;;26.25;15.65;;;1.50;93.10;;;;;;5128014;27;27974;-48
2021/01/17 11:21:34;;;;;;;29.30;16.08;;;1.50;93.00;;;;;;5127942;27;27434;-48
2021/01/17 11:24:19;;;;;;;28.50;15.23;;;1.60;93.00;;;;;;5127764;27;27485;-47
2021/01/17 11:27:07;;;;;;;25.80;16.20;;;1.60;93.00;;;;;;5127401;27;27410;-48
2021/01/17 11:29:56;;;;;;;23.60;15.27;;;1.60;93.00;;;;;;5127539;27;27469;-48
2021/01/17 11:32:40;;;;;;;24.60;15.05;;;1.60;93.00;;;;;;5124515;27;27384;-49
2021/01/17 11:35:25;;;;;;;28.98;15.90;;;1.60;93.00;;;;;;5127131;27;27336;-52
2021/01/17 11:38:10;;;;;;;27.90;14.85;;;1.60;93.00;;;;;;5126450;27;27355;-49
2021/01/17 11:41:06;;;;;;;26.27;15.80;;;1.60;93.00;;;;;;5126668;27;27937;-48
2021/01/17 11:43:52;;;;;;;27.73;16.17;;;1.60;93.10;;;;;;5127350;27;27579;-51
2021/01/17 11:46:37;;;;;;;27.27;16.45;;;1.70;93.30;;;;;;5127608;27;27331;-50
2021/01/17 11:49:25;;;;;;;28.55;16.55;;;1.70;93.40;;;;;;5123433;27;27318;-52
2021/01/17 11:52:13;;;;;;;25.98;15.27;;;1.70;93.40;;;;;;5126751;27;27456;-52
2021/01/17 11:55:07;;;;;;;26.23;15.75;;;1.70;93.40;;;;;;5127469;27;27509;-52
2021/01/17 11:58:07;;;;;;;28.30;16.17;;;1.70;93.40;;;;;;5127493;27;27461;-50
2021/01/17 12:00:55;;;;;;;26.40;15.02;;;1.70;93.50;;;;;;5127185;27;27319;-49
2021/01/17 12:03:41;;;;;;;26.63;15.52;;;1.70;93.50;;;;;;5123996;27;27410;-49
2021/01/17 12:06:25;;;;;;;28.48;15.05;;;1.70;93.50;;;;;;5125512;27;27455;-48
2021/01/17 12:09:17;;;;;;;25.45;14.70;;;1.70;93.50;;;;;;5127185;27;27476;-50
2021/01/17 12:12:35;;;;;;;26.35;14.80;;;1.70;93.60;;;;;;5126700;27;27416;-48
2021/01/17 12:15:21;;;;;;;25.17;14.32;;;1.70;93.60;;;;;;5126179;27;27464;-49
2021/01/17 12:18:06;;;;;;;27.75;15.10;;;1.70;93.50;;;;;;5126061;27;27472;-49
2021/01/17 12:20:50;;;;;;;25.35;16.40;;;1.80;93.50;;;;;;5126708;27;27485;-49
2021/01/17 12:23:35;;;;;;;26.52;14.63;;;1.80;93.40;;;;;;5126865;27;27450;-50
2021/01/17 12:26:20;;;;;;;28.38;15.02;;;1.80;93.30;;;;;;5126754;27;27444;-48
2021/01/17 12:29:05;;;;;;;24.73;14.45;;;1.80;93.40;;;;;;5126065;27;27456;-49
2021/01/17 12:31:50;;;;;;;26.00;14.93;;;1.80;93.40;;;;;;5126767;27;27402;-52
2021/01/17 12:34:35;;;;;;;22.70;14.05;;;1.80;93.40;;;;;;5125809;27;27595;-49
2021/01/17 12:37:20;;;;;;;26.95;15.32;;;1.80;93.40;;;;;;5125838;27;27476;-52
2021/01/17 12:40:05;;;;;;;28.52;15.20;;;1.80;93.40;;;;;;5126553;27;27435;-51
2021/01/17 12:42:50;;;;;;;24.75;15.18;;;1.90;93.40;;;;;;5126314;27;27488;-53
2021/01/17 12:45:34;;;;;;;23.83;15.15;;;1.90;93.50;;;;;;5126206;27;27452;-47
2021/01/17 12:48:19;;;;;;;23.08;13.38;;;2.10;93.50;;;;;;5126129;27;27461;-49
2021/01/17 12:51:04;;;;;;;21.45;12.38;;;2.30;93.20;;;;;;5126084;27;27461;-50
2021/01/17 12:53:49;;;;;;;24.90;13.23;;;2.50;92.80;;;;;;5126383;27;27414;-49
2021/01/17 12:56:33;;;;;;;23.08;13.43;;;2.60;92.30;;;;;;5126086;27;27470;-47
2021/01/17 12:59:18;;;;;;;19.92;12.95;;;2.80;92.00;;;;;;5126244;27;27419;-50
2021/01/17 13:02:03;;;;;;;22.67;12.30;;;2.80;91.70;;;;;;5125739;27;27485;-49
2021/01/17 13:04:48;;;;;;;22.35;13.55;;;3.00;91.40;;;;;;5125935;27;27477;-50
2021/01/17 13:07:32;;;;;;;20.33;11.80;;;3.00;91.20;;;;;;5125557;27;27485;-50
2021/01/17 13:10:16;;;;;;;20.13;12.65;;;3.10;91.00;;;;;;5125835;27;27412;-53
2021/01/17 13:13:01;;;;;;;22.33;12.77;;;3.10;91.00;;;;;;5125813;27;27392;-53
2021/01/17 13:15:52;;;;;;;21.60;12.02;;;3.20;90.80;;;;;;5125765;27;27355;-48
2021/01/17 13:18:37;;;;;;;20.55;11.98;;;3.20;90.80;;;;;;5125746;27;27402;-50
2021/01/17 13:21:22;;;;;;;22.67;12.65;;;3.20;90.70;;;;;;5126063;27;27397;-52
2021/01/17 13:24:07;;;;;;;18.63;11.63;;;3.20;90.70;;;;;;5122650;27;27366;-49
2021/01/17 13:26:53;;;;;;;19.77;12.00;;;3.20;90.50;;;;;;5121456;27;27339;-49
2021/01/17 13:29:38;;;;;;;16.50;11.30;;;3.30;90.50;;;;;;5125296;27;27432;-48
2021/01/17 13:32:22;;;;;;;18.90;11.88;;;3.30;90.40;;;;;;5124915;27;28007;-52
2021/01/17 13:35:07;;;;;;;18.45;11.55;;;3.40;90.30;;;;;;5125740;27;27413;-46
2021/01/17 13:37:52;;;;;;;18.02;11.75;;;3.40;90.20;;;;;;5125543;27;27455;-51
2021/01/17 13:40:37;;;;;;;16.85;11.48;;;3.50;90.20;;;;;;5125730;27;27395;-48
2021/01/17 13:43:22;;;;;;;15.73;10.30;;;3.40;90.10;;;;;;5125621;27;27444;-49
2021/01/17 13:46:07;;;;;;;16.23;10.27;;;3.50;90.00;;;;;;5125527;27;27491;-49
2021/01/17 13:48:51;;;;;;;15.45;9.02;;;3.50;90.00;;;;;;5125324;27;27508;-45
2021/01/17 13:51:35;;;;;;;16.45;10.07;;;3.50;89.90;;;;;;5122213;27;27451;-51
2021/01/17 13:54:20;;;;;;;18.27;10.70;;;3.60;89.80;;;;;;5125173;27;27498;-48
2021/01/17 13:57:05;;;;;;;16.63;9.55;;;3.50;89.80;;;;;;5124733;27;27482;-53
2021/01/17 13:59:50;;;;;;;13.07;9.00;;;3.50;90.00;;;;;;5121483;27;27424;-48
2021/01/17 14:02:34;;;;;;;18.35;9.60;;;3.40;90.10;;;;;;5125127;27;27410;-49
2021/01/17 14:05:19;;;;;;;14.63;9.27;;;3.40;90.10;;;;;;5124511;27;27433;-52
2021/01/17 14:08:04;;;;;;;17.08;10.57;;;3.40;90.30;;;;;;5124937;27;27488;-53
2021/01/17 14:10:49;;;;;;;17.90;9.88;;;3.30;90.30;;;;;;5125029;27;27507;-51
2021/01/17 14:13:34;;;;;;;16.88;9.70;;;3.30;90.40;;;;;;5124998;27;27414;-50
2021/01/17 14:16:18;;;;;;;16.02;9.48;;;3.30;90.40;;;;;;5125050;27;27476;-51
2021/01/17 14:19:03;;;;;;;15.98;9.52;;;3.30;90.40;;;;;;5125129;27;27398;-50